Latest Weather Observations for Kempsey Airport

IDN60801

Issued at 9:35 am EST Wednesday 3 September 2014 (issued every 30 minutes, with the page automatically refreshed every 10 minutes)

About weather observations | Map of weather stations | Latest weather observations for NSW | Other Formats
Station Details ID: 059007 Name: KEMPSEY AIRPORT AWS Lat: -31.07 Lon: 152.77 Height: 13.0 m
Data from the previous 72 hours. | See also: Recent months for locations in New South Wales
Date/Time
EST
Temp
°C
App
Temp
°C
Dew
Point
Rel
Hum
%
Delta-T
°C
Wind Press
QNH
hPa
Press
MSL
hPa
Rain
since 9 am
mm
Dir
 
Spd
km/h
Gust
km/h
Spd
kts
Gust
kts
03/09:30am 16.3 6.8 1.6 37 6.5 WSW 41 56 22 30 1009.0 1009.0 0.0
03/09:00am 16.1 6.7 2.5 40 6.1 WSW 41 59 22 32 1008.8 1008.8 1.0
03/08:30am 15.0 6.3 2.2 42 5.7 WSW 37 56 20 30 1008.8 1008.8 1.0
03/08:00am 14.3 6.6 2.2 44 5.3 WSW 32 50 17 27 1008.4 1008.4 1.0
03/07:30am 13.4 5.6 1.7 45 5.1 WSW 32 52 17 28 1008.3 1008.3 1.0
03/07:00am 12.7 4.4 2.0 48 4.6 WSW 35 70 19 38 1008.3 1008.3 1.0
03/06:40am 12.6 5.2 1.6 47 4.7 WSW 30 54 16 29 1008.2 1008.2 1.0
03/06:30am 12.3 5.3 1.9 49 4.5 WSW 28 43 15 23 1008.1 1008.1 1.0
03/06:00am 12.6 4.8 1.9 48 4.6 WSW 32 52 17 28 1008.1 1008.1 1.0
03/05:30am 12.5 4.6 2.4 50 4.4 WSW 33 56 18 30 1007.4 - 1.0
03/05:22am 12.5 4.6 2.4 50 4.4 WSW 33 52 18 28 1007.5 - 1.0
03/05:00am 12.6 5.7 2.5 50 4.4 W 28 41 15 22 1007.4 1007.4 1.0
03/04:37am 12.7 4.8 2.3 49 4.5 SW 33 52 18 28 1007.4 - 1.0
03/04:30am 12.6 6.8 2.2 49 4.5 W 22 35 12 19 1007.5 - 1.0
03/04:00am 12.7 6.6 2.6 50 4.4 W 24 35 13 19 1007.2 1007.2 1.0
03/03:30am 12.6 7.2 2.7 51 4.3 W 20 33 11 18 1007.2 - 1.0
03/03:00am 12.9 6.0 2.5 49 4.6 WSW 28 44 15 24 1007.4 1007.4 1.0
03/02:30am 11.8 6.5 2.0 51 4.2 W 19 32 10 17 1007.7 - 1.0
03/02:00am 12.0 7.2 2.5 52 4.1 W 17 30 9 16 1008.1 1008.1 1.0
03/01:30am 12.0 6.8 2.5 52 4.1 W 19 24 10 13 1008.1 - 1.0
03/01:00am 11.6 8.5 3.6 58 3.6 WNW 9 17 5 9 1008.9 1008.9 1.0
03/12:30am 10.0 6.6 2.1 58 3.3 W 9 11 5 6 1008.9 - 1.0
03/12:00am 10.7 6.9 1.5 53 3.9 W 11 17 6 9 1008.9 1008.9 1.0
 
Date/Time
EST
Temp
°C
App
Temp
°C
Dew
Point
Rel
Hum
%
Delta-T
°C
Wind Press
QNH
hPa
Press
MSL
hPa
Rain
since 9 am
mm
Dir
 
Spd
km/h
Gust
km/h
Spd
kts
Gust
kts
02/11:30pm 11.6 7.8 1.5 50 4.3 W 11 17 6 9 1009.0 - 1.0
02/11:00pm 12.4 7.8 1.7 48 4.6 W 15 24 8 13 1009.2 1009.2 1.0
02/10:30pm 13.0 8.1 1.7 46 4.9 W 17 24 9 13 1009.4 - 1.0
02/10:00pm 13.1 7.5 1.5 45 5.0 W 20 30 11 16 1009.4 1009.4 1.0
02/09:30pm 13.3 8.4 1.9 46 4.9 W 17 26 9 14 1009.3 - 1.0
02/09:00pm 13.3 9.2 2.2 47 4.8 W 13 22 7 12 1009.7 1009.7 1.0
02/08:30pm 13.9 8.9 1.5 43 5.4 W 17 24 9 13 1009.6 - 1.0
02/08:00pm 14.4 9.0 1.3 41 5.7 W 19 28 10 15 1009.3 1009.3 1.0
02/07:30pm 14.5 9.2 1.8 42 5.5 W 19 26 10 14 1009.2 - 1.0
02/07:00pm 14.9 9.1 2.4 43 5.6 WNW 22 33 12 18 1008.9 1008.9 1.0
02/06:30pm 15.0 9.5 1.9 41 5.8 WNW 20 28 11 15 1008.7 - 1.0
02/06:00pm 15.1 9.8 2.0 41 5.8 W 19 26 10 14 1008.3 1008.3 1.0
02/05:30pm 16.7 9.6 1.6 36 6.7 W 28 37 15 20 1008.2 - 1.0
02/05:00pm 17.8 11.1 1.3 33 7.4 W 26 39 14 21 1007.6 1007.6 1.0
02/04:46pm 18.4 11.5 2.3 34 7.4 W 28 46 15 25 1007.5 - 1.0
02/04:30pm 18.0 11.6 3.1 37 6.9 W 26 37 14 20 1007.2 - 1.0
02/04:00pm 19.0 12.8 4.4 38 7.0 W 26 35 14 19 1006.7 1006.7 1.0
02/03:30pm 18.5 11.5 4.3 39 6.8 WNW 30 48 16 26 1006.5 - 1.0
02/03:00pm 20.1 12.9 5.0 37 7.4 WNW 32 41 17 22 1005.6 1005.6 1.0
02/02:30pm 17.5 11.3 9.4 59 4.2 WSW 32 50 17 27 1004.6 - 1.0
02/02:13pm 15.6 9.2 8.4 62 3.6 W 32 63 17 34 1004.4 - 0.8
02/02:07pm 21.1 14.4 3.8 32 8.3 WSW 28 56 15 30 1004.7 - 0.0
02/02:00pm 21.7 18.7 7.9 41 7.2 ENE 13 19 7 10 1003.2 1003.1 0.0
02/01:30pm 25.7 23.0 3.6 24 10.9 N 7 9 4 5 1003.5 - 0.0
02/01:00pm 23.7 20.4 4.6 29 9.5 NNW 11 17 6 9 1004.4 1004.3 0.0
02/12:30pm 23.5 20.2 4.5 29 9.4 NW 11 17 6 9 1005.5 - 0.0
02/12:00pm 21.5 20.6 7.7 41 7.2 NE 2 9 1 5 1006.3 1006.3 0.0
02/11:30am 19.0 17.5 10.6 58 4.5 WNW 9 13 5 7 1007.5 - 0.0
02/11:00am 16.4 14.0 11.3 72 2.8 WNW 15 17 8 9 1008.6 1008.6 0.0
02/10:30am 15.2 13.6 11.6 79 1.9 W 11 15 6 8 1009.2 - 0.0
02/10:00am 14.3 12.3 11.5 83 1.5 W 13 17 7 9 1009.5 1009.5 0.0
02/09:30am 13.3 11.1 10.8 85 1.3 WNW 13 15 7 8 1009.5 - 0.0
02/09:00am 12.6 11.2 11.0 90 0.8 WSW 9 13 5 7 1009.9 1009.9 0.0
02/08:30am 11.9 10.4 10.6 92 0.7 SW 9 9 5 5 1009.9 - 0.0
02/08:00am 11.3 10.2 10.0 92 0.7 WSW 6 7 3 4 1010.0 1010.0 0.0
02/07:30am 11.2 9.9 10.1 93 0.6 WSW 7 7 4 4 1010.1 - 0.0
02/07:00am 11.2 9.9 10.1 93 0.6 WSW 7 11 4 6 1010.1 1010.1 0.0
02/06:30am 11.1 9.9 10.2 94 0.5 NE 7 11 4 6 1009.9 - 0.0
02/06:00am 10.9 9.6 9.8 93 0.6 W 7 11 4 6 1010.1 1010.1 0.0
02/05:30am 10.7 9.5 9.6 93 0.6 SSW 6 6 3 3 1010.2 - 0.0
02/05:00am 10.7 10.6 9.6 93 0.6 CALM 0 0 0 0 1010.2 1010.2 0.0
02/04:30am 11.0 11.0 9.9 93 0.6 CALM 0 0 0 0 1010.4 - 0.0
02/04:00am 11.0 11.0 9.9 93 0.6 CALM 0 0 0 0 1010.5 1010.5 0.0
02/03:30am 10.8 10.8 9.7 93 0.6 CALM 0 0 0 0 1010.7 - 0.0
02/03:00am 11.5 11.7 10.6 94 0.5 CALM 0 0 0 0 1010.8 1010.8 0.0
02/02:30am 11.1 11.2 10.0 93 0.6 CALM 0 0 0 0 1011.3 - 0.0
02/02:00am 11.0 9.7 9.9 93 0.6 W 7 9 4 5 1011.6 1011.6 0.0
02/01:30am 11.3 11.4 10.2 93 0.6 CALM 0 0 0 0 1012.0 - 0.0
02/01:00am 12.0 11.2 10.9 93 0.6 WSW 6 7 3 4 1012.3 1012.3 0.0
02/12:30am 12.3 11.4 11.4 94 0.5 WSW 7 9 4 5 1012.8 - 0.0
02/12:00am 12.2 10.9 11.3 94 0.5 W 9 9 5 5 1012.9 1012.9 0.0
 
Date/Time
EST
Temp
°C
App
Temp
°C
Dew
Point
Rel
Hum
%
Delta-T
°C
Wind Press
QNH
hPa
Press
MSL
hPa
Rain
since 9 am
mm
Dir
 
Spd
km/h
Gust
km/h
Spd
kts
Gust
kts
01/11:30pm 12.1 12.4 11.0 93 0.6 CALM 0 0 0 0 1013.0 - 0.0
01/11:00pm 12.2 12.6 11.1 93 0.6 CALM 0 0 0 0 1013.4 1013.4 0.0
01/10:30pm 13.2 12.7 12.1 93 0.6 WNW 6 7 3 4 1013.7 - 0.0
01/10:00pm 13.4 14.1 12.3 93 0.6 CALM 0 0 0 0 1013.6 1013.6 0.0
01/09:30pm 13.4 13.6 12.0 91 0.8 W 2 9 1 5 1013.7 - 0.0
01/09:00pm 14.0 14.8 12.7 92 0.7 CALM 0 0 0 0 1013.9 1013.9 0.0
01/08:30pm 14.5 14.7 13.2 92 0.7 W 4 7 2 4 1013.9 - 0.0
01/08:00pm 14.8 14.8 13.5 92 0.7 W 6 9 3 5 1014.0 1014.0 0.0
01/07:30pm 15.0 16.1 13.5 91 0.8 CALM 0 0 0 0 1013.9 - 0.0
01/07:00pm 15.4 15.2 13.1 86 1.3 ESE 6 6 3 3 1013.8 1013.8 0.0
01/06:30pm 16.6 16.5 13.3 81 1.8 ESE 6 9 3 5 1013.7 - 0.0
01/06:00pm 18.1 17.8 14.4 79 2.1 E 9 11 5 6 1013.5 1013.5 0.0
01/05:30pm 19.2 18.6 14.5 74 2.7 ENE 11 17 6 9 1013.2 - 0.0
01/05:00pm 20.2 18.1 13.6 66 3.8 ENE 17 24 9 13 1012.9 1012.9 0.0
01/04:30pm 20.9 18.9 12.8 60 4.6 ENE 15 24 8 13 1012.7 - 0.0
01/04:00pm 21.6 18.7 12.2 55 5.3 ENE 19 26 10 14 1012.4 1012.4 0.0
01/03:30pm 22.3 19.2 12.3 53 5.7 ENE 20 26 11 14 1012.5 - 0.0
01/03:00pm 22.9 19.8 12.2 51 6.1 ENE 20 30 11 16 1012.7 1012.7 0.0
01/02:30pm 23.6 20.4 12.0 48 6.6 ENE 20 30 11 16 1012.8 - 0.0
01/02:00pm 25.7 22.7 5.8 28 10.2 N 11 22 6 12 1013.1 1013.1 0.0
01/01:30pm 25.1 21.8 6.3 30 9.7 N 13 24 7 13 1013.6 - 0.0
01/01:00pm 24.9 22.5 8.8 36 8.7 W 11 24 6 13 1013.9 1013.9 0.0
01/12:30pm 24.5 21.9 7.6 34 8.9 WNW 11 19 6 10 1014.5 - 0.0
01/12:00pm 24.1 21.3 8.5 37 8.3 N 13 20 7 11 1015.2 1015.2 0.0
01/11:30am 23.0 21.2 10.8 46 6.8 NNE 11 20 6 11 1015.8 - 0.0
01/11:00am 22.0 20.0 11.4 51 5.9 N 13 17 7 9 1016.3 1016.3 0.0
01/10:30am 21.2 20.4 12.9 59 4.7 NNE 9 17 5 9 1016.8 - 0.0
01/10:00am 20.3 19.8 12.5 61 4.4 N 7 15 4 8 1017.5 1017.5 0.0
01/09:30am 19.2 19.1 13.4 69 3.3 W 6 11 3 6 1017.8 - 0.0
01/09:00am 17.4 16.5 12.7 74 2.6 W 9 11 5 6 1018.3 1018.3 0.0
01/08:30am 15.9 14.2 12.6 81 1.8 NW 13 17 7 9 1018.4 - 0.0
01/08:00am 14.5 13.3 12.9 90 0.9 NW 11 15 6 8 1018.5 1018.5 0.0
01/07:30am 12.9 12.8 12.1 95 0.4 W 4 9 2 5 1018.3 - 0.0
01/07:00am 10.9 11.0 10.0 94 0.5 CALM 0 0 0 0 1018.1 1018.1 0.0
01/06:30am 9.9 9.7 9.0 94 0.4 CALM 0 0 0 0 1017.9 - 0.0
01/06:00am 9.5 9.2 8.6 94 0.4 CALM 0 0 0 0 1017.9 1017.9 0.0
01/05:30am 9.3 8.9 8.2 93 0.5 CALM 0 0 0 0 1017.5 - 0.0
01/05:00am 9.5 9.1 8.4 93 0.5 CALM 0 0 0 0 1017.4 1017.4 0.0
01/04:30am 9.3 8.9 8.2 93 0.5 CALM 0 0 0 0 1017.3 - 0.0
01/04:00am 9.7 9.4 8.6 93 0.5 CALM 0 0 0 0 1017.1 1017.1 0.0
01/03:30am 9.9 9.6 8.8 93 0.5 CALM 0 0 0 0 1017.1 - 0.0
01/03:00am 10.6 10.1 9.5 93 0.5 W 2 6 1 3 1017.2 1017.2 0.0
01/02:30am 10.9 9.8 9.8 93 0.6 WSW 6 9 3 5 1017.4 - 0.0
01/02:00am 11.0 9.8 9.6 91 0.7 SW 6 7 3 4 1017.7 1017.7 0.0
01/01:30am 11.9 11.0 10.5 91 0.7 SW 6 7 3 4 1018.0 - 0.0
01/01:00am 12.1 11.6 10.8 92 0.7 W 4 7 2 4 1018.2 1018.2 0.0
01/12:30am 12.4 11.6 11.1 92 0.7 SW 6 7 3 4 1018.3 - 0.0
01/12:00am 11.6 10.3 10.0 90 0.8 WSW 7 9 4 5 1018.4 1018.4 0.0
 
Date/Time
EST
Temp
°C
App
Temp
°C
Dew
Point
Rel
Hum
%
Delta-T
°C
Wind Press
QNH
hPa
Press
MSL
hPa
Rain
since 9 am
mm
Dir
 
Spd
km/h
Gust
km/h
Spd
kts
Gust
kts
31/11:30pm 12.6 11.6 11.0 90 0.8 WSW 7 9 4 5 1018.4 - 0.0
31/11:00pm 12.8 12.4 11.0 89 0.9 W 4 7 2 4 1018.5 1018.5 0.0
31/10:30pm 12.9 12.0 11.3 90 0.8 WSW 7 9 4 5 1018.5 - 0.0
31/10:00pm 13.2 13.6 11.4 89 1.0 CALM 0 0 0 0 1018.7 1018.7 0.0
31/09:30pm 13.3 12.6 11.4 88 1.0 WNW 6 9 3 5 1018.9 - 0.0
31/09:00pm 13.4 12.7 11.3 87 1.1 W 6 7 3 4 1018.8 1018.8 0.0
31/08:30pm 13.8 14.0 12.0 89 1.0 SW 2 9 1 5 1018.6 - 0.0
31/08:00pm 13.7 13.5 11.7 88 1.1 NNW 4 7 2 4 1018.6 1018.6 0.0
31/07:30pm 14.0 14.1 11.5 85 1.3 NW 2 6 1 3 1018.4 - 0.0
31/07:00pm 14.8 13.9 11.2 79 1.9 S 7 9 4 5 1018.1 1018.1 0.0
31/06:30pm 16.3 15.2 12.1 76 2.3 SSE 9 15 5 8 1017.5 - 0.0
31/06:00pm 16.7 14.9 12.0 74 2.6 SSE 13 17 7 9 1017.2 1017.2 0.0
31/05:30pm 17.7 15.5 12.2 70 3.0 SE 15 20 8 11 1016.7 - 0.0
31/05:00pm 18.5 16.0 12.3 67 3.4 SE 17 24 9 13 1016.5 1016.5 0.0
31/04:30pm 20.3 17.6 11.8 58 4.7 SE 17 24 9 13 1016.1 - 0.0
31/04:00pm 20.6 18.2 11.5 56 5.0 SE 15 20 8 11 1015.9 1015.9 0.0
31/03:30pm 21.2 17.5 9.4 47 6.3 S 19 24 10 13 1015.8 - 0.0
31/03:00pm 22.5 19.2 9.6 44 7.0 S 17 26 9 14 1015.9 1015.9 0.0
31/02:30pm 22.1 18.3 9.9 46 6.6 S 20 28 11 15 1016.1 - 0.0
31/02:00pm 22.4 18.6 9.9 45 6.8 S 20 28 11 15 1016.2 1016.2 0.0
31/01:30pm 22.8 19.9 9.6 43 7.1 S 15 22 8 12 1016.4 - 0.0
31/01:00pm 23.5 19.8 10.2 43 7.3 SSW 20 28 11 15 1016.7 1016.7 0.0
31/12:30pm 22.4 18.9 10.2 46 6.7 SSW 19 33 10 18 1017.0 - 0.0
31/12:00pm 22.0 17.7 9.5 45 6.7 SW 22 30 12 16 1017.4 1017.4 0.0
31/11:30am 21.6 17.8 9.8 47 6.4 SSW 20 32 11 17 1017.8 - 0.0
31/11:00am 21.1 17.2 10.9 52 5.6 SSW 22 35 12 19 1018.2 1018.2 0.0
31/10:30am 21.6 17.9 11.6 53 5.6 S 22 32 12 17 1018.7 - 0.0
31/10:00am 20.4 16.9 10.8 54 5.2 SW 20 28 11 15 1019.1 1019.1 0.0

Other Formats:

Comma delimited format used in spreadsheet applications
http://www.bom.gov.au/fwo/IDN60801/IDN60801.94785.axf

JavaScript Object Notation format (JSON) in row-major order
http://www.bom.gov.au/fwo/IDN60801/IDN60801.94785.json